sensor_id;sensor_type;location;lat;lon;timestamp;pressure;altitude;pressure_sealevel;temperature;humidity
63190;BME280;49286;44.460;26.114;2023-10-09T00:02:12;101315.56;;;11.44;100.00
63190;BME280;49286;44.460;26.114;2023-10-09T00:04:40;101271.19;;;10.93;100.00
63190;BME280;49286;44.460;26.114;2023-10-09T00:07:13;101277.19;;;10.82;100.00
63190;BME280;49286;44.460;26.114;2023-10-09T00:09:42;101265.16;;;11.02;100.00
63190;BME280;49286;44.460;26.114;2023-10-09T00:12:18;101207.97;;;10.76;100.00
63190;BME280;49286;44.460;26.114;2023-10-09T00:14:48;101195.72;;;10.75;100.00
63190;BME280;49286;44.460;26.114;2023-10-09T00:17:16;101203.63;;;10.77;100.00
63190;BME280;49286;44.460;26.114;2023-10-09T00:19:46;101310.00;;;11.19;100.00
63190;BME280;49286;44.460;26.114;2023-10-09T00:22:24;101198.75;;;10.38;100.00
63190;BME280;49286;44.460;26.114;2023-10-09T00:24:50;101319.47;;;11.03;100.00
63190;BME280;49286;44.460;26.114;2023-10-09T00:27:17;101237.19;;;10.35;100.00
63190;BME280;49286;44.460;26.114;2023-10-09T00:29:46;101321.16;;;10.99;100.00
63190;BME280;49286;44.460;26.114;2023-10-09T00:32:14;101219.31;;;10.13;100.00
63190;BME280;49286;44.460;26.114;2023-10-09T00:34:55;101238.03;;;10.34;100.00
63190;BME280;49286;44.460;26.114;2023-10-09T00:37:24;101329.16;;;11.09;100.00
63190;BME280;49286;44.460;26.114;2023-10-09T00:39:51;101200.31;;;10.28;100.00
63190;BME280;49286;44.460;26.114;2023-10-09T00:42:36;101343.03;;;10.98;100.00
63190;BME280;49286;44.460;26.114;2023-10-09T00:45:04;101337.00;;;11.06;100.00
63190;BME280;49286;44.460;26.114;2023-10-09T00:47:31;101342.97;;;10.95;100.00
63190;BME280;49286;44.460;26.114;2023-10-09T00:50:05;101333.97;;;10.76;100.00
63190;BME280;49286;44.460;26.114;2023-10-09T00:52:42;101366.75;;;11.03;100.00
63190;BME280;49286;44.460;26.114;2023-10-09T00:55:18;101369.56;;;10.56;100.00
63190;BME280;49286;44.460;26.114;2023-10-09T00:57:55;101255.41;;;10.28;100.00
63190;BME280;49286;44.460;26.114;2023-10-09T01:00:26;101381.50;;;10.95;100.00
63190;BME280;49286;44.460;26.114;2023-10-09T01:03:14;101368.69;;;10.57;100.00
63190;BME280;49286;44.460;26.114;2023-10-09T01:05:54;101263.00;;;10.11;100.00
63190;BME280;49286;44.460;26.114;2023-10-09T01:08:25;101362.38;;;10.44;100.00
63190;BME280;49286;44.460;26.114;2023-10-09T01:10:58;101396.41;;;10.40;100.00
63190;BME280;49286;44.460;26.114;2023-10-09T01:13:50;101287.09;;;9.87;100.00
63190;BME280;49286;44.460;26.114;2023-10-09T01:16:16;101401.84;;;10.52;99.85
63190;BME280;49286;44.460;26.114;2023-10-09T01:18:43;101292.59;;;10.04;98.59
63190;BME280;49286;44.460;26.114;2023-10-09T01:21:12;101394.75;;;10.46;96.66
63190;BME280;49286;44.460;26.114;2023-10-09T01:23:44;101390.69;;;10.65;96.45
63190;BME280;49286;44.460;26.114;2023-10-09T01:26:41;101422.19;;;10.65;94.00
63190;BME280;49286;44.460;26.114;2023-10-09T01:29:30;101422.06;;;10.57;94.97
63190;BME280;49286;44.460;26.114;2023-10-09T01:31:56;101306.47;;;9.48;96.40
63190;BME280;49286;44.460;26.114;2023-10-09T01:34:28;101435.09;;;10.51;95.19
63190;BME280;49286;44.460;26.114;2023-10-09T01:37:17;101314.75;;;9.71;95.39
63190;BME280;49286;44.460;26.114;2023-10-09T01:39:52;101415.63;;;9.91;96.91
63190;BME280;49286;44.460;26.114;2023-10-09T01:42:20;101421.03;;;10.01;96.26
63190;BME280;49286;44.460;26.114;2023-10-09T01:44:55;101444.56;;;10.43;95.30
63190;BME280;49286;44.460;26.114;2023-10-09T01:47:21;101317.22;;;9.62;93.64
63190;BME280;49286;44.460;26.114;2023-10-09T01:49:47;101331.88;;;9.50;95.61
63190;BME280;49286;44.460;26.114;2023-10-09T01:52:18;101464.34;;;9.80;96.82
63190;BME280;49286;44.460;26.114;2023-10-09T01:54:47;101360.09;;;9.65;98.29
63190;BME280;49286;44.460;26.114;2023-10-09T01:57:17;101453.75;;;9.74;99.54
63190;BME280;49286;44.460;26.114;2023-10-09T01:59:51;101262.72;;;8.97;99.51
63190;BME280;49286;44.460;26.114;2023-10-09T02:02:20;101373.94;;;9.60;98.37
63190;BME280;49286;44.460;26.114;2023-10-09T02:04:55;101457.94;;;10.10;97.67
63190;BME280;49286;44.460;26.114;2023-10-09T02:07:30;101437.47;;;9.48;100.00
63190;BME280;49286;44.460;26.114;2023-10-09T02:10:08;101334.69;;;8.76;100.00
63190;BME280;49286;44.460;26.114;2023-10-09T02:12:48;101454.19;;;9.55;100.00
63190;BME280;49286;44.460;26.114;2023-10-09T02:15:32;101436.19;;;9.70;100.00
63190;BME280;49286;44.460;26.114;2023-10-09T02:23:34;101444.03;;;9.29;100.00
63190;BME280;49286;44.460;26.114;2023-10-09T02:26:16;101437.22;;;9.36;100.00
63190;BME280;49286;44.460;26.114;2023-10-09T02:28:55;101459.38;;;9.51;100.00
63190;BME280;49286;44.460;26.114;2023-10-09T02:31:25;101485.59;;;9.51;100.00
63190;BME280;49286;44.460;26.114;2023-10-09T02:33:54;101483.50;;;9.78;100.00
63190;BME280;49286;44.460;26.114;2023-10-09T02:36:21;101374.78;;;9.15;100.00
63190;BME280;49286;44.460;26.114;2023-10-09T02:38:46;101463.41;;;9.77;100.00
63190;BME280;49286;44.460;26.114;2023-10-09T02:41:15;101391.28;;;8.71;100.00
63190;BME280;49286;44.460;26.114;2023-10-09T02:43:40;101480.19;;;9.45;100.00
63190;BME280;49286;44.460;26.114;2023-10-09T02:46:26;101325.19;;;8.81;100.00
63190;BME280;49286;44.460;26.114;2023-10-09T02:48:56;101376.84;;;8.88;100.00
63190;BME280;49286;44.460;26.114;2023-10-09T02:51:28;101364.56;;;8.86;100.00
63190;BME280;49286;44.460;26.114;2023-10-09T02:53:56;101496.81;;;9.08;100.00
63190;BME280;49286;44.460;26.114;2023-10-09T02:56:26;101363.09;;;8.59;100.00
63190;BME280;49286;44.460;26.114;2023-10-09T02:59:07;101479.41;;;9.08;100.00
63190;BME280;49286;44.460;26.114;2023-10-09T03:01:38;101417.50;;;9.12;100.00
63190;BME280;49286;44.460;26.114;2023-10-09T03:04:04;101487.06;;;9.40;100.00
63190;BME280;49286;44.460;26.114;2023-10-09T03:06:32;101378.84;;;9.00;100.00
63190;BME280;49286;44.460;26.114;2023-10-09T03:09:00;101495.72;;;9.36;100.00
63190;BME280;49286;44.460;26.114;2023-10-09T03:11:25;101487.78;;;9.33;100.00
63190;BME280;49286;44.460;26.114;2023-10-09T03:13:57;101446.91;;;9.40;100.00
63190;BME280;49286;44.460;26.114;2023-10-09T03:16:23;101362.59;;;8.76;100.00
63190;BME280;49286;44.460;26.114;2023-10-09T03:18:51;101368.28;;;8.58;100.00
63190;BME280;49286;44.460;26.114;2023-10-09T03:21:18;101485.13;;;9.32;100.00
63190;BME280;49286;44.460;26.114;2023-10-09T03:23:47;101373.66;;;8.64;100.00
63190;BME280;49286;44.460;26.114;2023-10-09T03:26:19;101344.91;;;8.29;100.00
63190;BME280;49286;44.460;26.114;2023-10-09T03:28:49;101496.41;;;9.27;100.00
63190;BME280;49286;44.460;26.114;2023-10-09T03:31:14;101398.22;;;8.71;100.00
63190;BME280;49286;44.460;26.114;2023-10-09T03:33:40;101461.84;;;9.06;100.00
63190;BME280;49286;44.460;26.114;2023-10-09T03:36:06;101504.13;;;9.21;100.00
63190;BME280;49286;44.460;26.114;2023-10-09T03:38:40;101423.44;;;9.05;100.00
63190;BME280;49286;44.460;26.114;2023-10-09T03:41:07;101373.22;;;8.45;100.00
63190;BME280;49286;44.460;26.114;2023-10-09T03:43:38;101409.31;;;8.60;100.00
63190;BME280;49286;44.460;26.114;2023-10-09T03:46:08;101441.41;;;8.53;100.00
63190;BME280;49286;44.460;26.114;2023-10-09T03:48:47;101422.88;;;8.44;100.00
63190;BME280;49286;44.460;26.114;2023-10-09T03:51:13;101512.97;;;8.90;100.00
63190;BME280;49286;44.460;26.114;2023-10-09T03:53:46;101516.66;;;9.35;100.00
63190;BME280;49286;44.460;26.114;2023-10-09T03:56:12;101490.38;;;9.32;100.00
63190;BME280;49286;44.460;26.114;2023-10-09T03:58:43;101398.59;;;8.50;100.00
63190;BME280;49286;44.460;26.114;2023-10-09T04:01:13;101525.94;;;9.20;100.00
63190;BME280;49286;44.460;26.114;2023-10-09T04:03:51;101525.38;;;9.35;100.00
63190;BME280;49286;44.460;26.114;2023-10-09T04:06:26;101509.03;;;9.07;100.00
63190;BME280;49286;44.460;26.114;2023-10-09T04:09:05;101530.38;;;8.88;100.00
63190;BME280;49286;44.460;26.114;2023-10-09T04:11:43;101524.38;;;8.92;100.00
63190;BME280;49286;44.460;26.114;2023-10-09T04:14:14;101400.28;;;8.14;100.00
63190;BME280;49286;44.460;26.114;2023-10-09T04:16:59;101536.06;;;9.06;100.00
63190;BME280;49286;44.460;26.114;2023-10-09T04:19:43;101506.66;;;9.18;100.00
63190;BME280;49286;44.460;26.114;2023-10-09T04:22:37;101477.63;;;8.73;100.00
63190;BME280;49286;44.460;26.114;2023-10-09T04:25:35;101436.56;;;8.69;100.00
63190;BME280;49286;44.460;26.114;2023-10-09T04:28:15;101576.47;;;9.54;100.00
63190;BME280;49286;44.460;26.114;2023-10-09T04:30:41;101547.88;;;9.25;100.00
63190;BME280;49286;44.460;26.114;2023-10-09T04:33:12;101558.69;;;9.41;100.00
63190;BME280;49286;44.460;26.114;2023-10-09T04:36:07;101589.34;;;9.45;100.00
63190;BME280;49286;44.460;26.114;2023-10-09T04:38:54;101584.44;;;9.59;98.45
63190;BME280;49286;44.460;26.114;2023-10-09T04:41:42;101489.38;;;8.88;98.31
63190;BME280;49286;44.460;26.114;2023-10-09T04:44:08;101473.91;;;8.98;94.13
63190;BME280;49286;44.460;26.114;2023-10-09T04:46:51;101572.41;;;9.68;93.05
63190;BME280;49286;44.460;26.114;2023-10-09T04:49:36;101586.91;;;9.52;92.53
63190;BME280;49286;44.460;26.114;2023-10-09T04:52:18;101498.09;;;8.89;95.37
63190;BME280;49286;44.460;26.114;2023-10-09T04:55:04;101591.41;;;9.20;94.39
63190;BME280;49286;44.460;26.114;2023-10-09T04:57:40;101536.84;;;9.02;96.06
63190;BME280;49286;44.460;26.114;2023-10-09T05:00:12;101599.28;;;9.58;92.04
63190;BME280;49286;44.460;26.114;2023-10-09T05:02:59;101588.63;;;9.52;90.38
63190;BME280;49286;44.460;26.114;2023-10-09T05:05:48;101484.97;;;8.86;88.08
63190;BME280;49286;44.460;26.114;2023-10-09T05:08:24;101611.41;;;9.53;88.05
63190;BME280;49286;44.460;26.114;2023-10-09T05:10:57;101479.78;;;8.87;87.70
63190;BME280;49286;44.460;26.114;2023-10-09T05:13:36;101494.47;;;9.19;86.73
63190;BME280;49286;44.460;26.114;2023-10-09T05:16:15;101611.22;;;9.85;84.42
63190;BME280;49286;44.460;26.114;2023-10-09T05:18:49;101607.91;;;9.54;86.32
63190;BME280;49286;44.460;26.114;2023-10-09T05:21:36;101539.38;;;9.36;85.79
63190;BME280;49286;44.460;26.114;2023-10-09T05:24:03;101526.25;;;9.36;86.14
63190;BME280;49286;44.460;26.114;2023-10-09T05:26:51;101642.47;;;10.15;85.65
63190;BME280;49286;44.460;26.114;2023-10-09T05:31:51;101620.78;;;9.81;79.80
63190;BME280;49286;44.460;26.114;2023-10-09T05:34:22;101651.81;;;9.64;79.96
63190;BME280;49286;44.460;26.114;2023-10-09T05:36:49;101666.13;;;10.17;77.34
63190;BME280;49286;44.460;26.114;2023-10-09T05:39:14;101614.94;;;9.94;75.90
63190;BME280;49286;44.460;26.114;2023-10-09T05:41:47;101665.94;;;10.07;76.45
63190;BME280;49286;44.460;26.114;2023-10-09T05:44:18;101622.69;;;9.90;75.59
63190;BME280;49286;44.460;26.114;2023-10-09T05:47:06;101581.84;;;9.60;77.10
63190;BME280;49286;44.460;26.114;2023-10-09T05:49:50;101674.53;;;10.41;73.23
63190;BME280;49286;44.460;26.114;2023-10-09T05:52:29;101605.88;;;9.79;72.89
63190;BME280;49286;44.460;26.114;2023-10-09T05:55:18;101669.22;;;9.99;73.35
63190;BME280;49286;44.460;26.114;2023-10-09T05:57:50;101634.56;;;10.12;72.54
63190;BME280;49286;44.460;26.114;2023-10-09T06:00:35;101552.13;;;9.60;71.91
63190;BME280;49286;44.460;26.114;2023-10-09T06:03:19;101651.28;;;10.17;70.98
63190;BME280;49286;44.460;26.114;2023-10-09T06:05:46;101594.25;;;10.08;68.72
63190;BME280;49286;44.460;26.114;2023-10-09T06:08:31;101569.78;;;9.67;67.88
63190;BME280;49286;44.460;26.114;2023-10-09T06:11:12;101669.78;;;10.23;68.63
63190;BME280;49286;44.460;26.114;2023-10-09T06:13:58;101672.97;;;10.10;66.73
63190;BME280;49286;44.460;26.114;2023-10-09T06:16:30;101563.31;;;9.90;67.15
63190;BME280;49286;44.460;26.114;2023-10-09T06:19:12;101667.50;;;10.83;79.57
63190;BME280;49286;44.460;26.114;2023-10-09T06:21:41;101648.34;;;11.37;77.39
63190;BME280;49286;44.460;26.114;2023-10-09T06:24:23;101561.50;;;10.76;76.87
63190;BME280;49286;44.460;26.114;2023-10-09T06:26:49;101576.28;;;11.80;100.00
63190;BME280;49286;44.460;26.114;2023-10-09T06:29:28;101562.69;;;12.95;100.00
63190;BME280;49286;44.460;26.114;2023-10-09T06:32:08;101572.22;;;12.06;65.14
63190;BME280;49286;44.460;26.114;2023-10-09T06:34:53;101686.47;;;12.93;71.55
63190;BME280;49286;44.460;26.114;2023-10-09T06:37:23;101689.47;;;10.88;61.61
63190;BME280;49286;44.460;26.114;2023-10-09T06:39:52;101698.66;;;12.13;63.79
63190;BME280;49286;44.460;26.114;2023-10-09T06:42:28;101697.03;;;11.68;60.93
63190;BME280;49286;44.460;26.114;2023-10-09T06:45:10;101677.34;;;12.62;61.38
63190;BME280;49286;44.460;26.114;2023-10-09T06:47:40;101586.44;;;11.03;58.11
63190;BME280;49286;44.460;26.114;2023-10-09T06:50:19;101690.31;;;11.86;59.91
63190;BME280;49286;44.460;26.114;2023-10-09T06:52:51;101663.59;;;11.59;59.09
63190;BME280;49286;44.460;26.114;2023-10-09T06:55:43;101652.75;;;12.61;64.44
63190;BME280;49286;44.460;26.114;2023-10-09T06:58:20;101674.81;;;11.49;58.66
63190;BME280;49286;44.460;26.114;2023-10-09T07:00:52;101680.50;;;13.09;63.20
63190;BME280;49286;44.460;26.114;2023-10-09T07:03:43;101653.34;;;13.20;60.18
63190;BME280;49286;44.460;26.114;2023-10-09T07:06:19;101596.03;;;11.54;56.20
63190;BME280;49286;44.460;26.114;2023-10-09T07:09:11;101680.16;;;12.09;57.84
63190;BME280;49286;44.460;26.114;2023-10-09T07:11:44;101676.72;;;12.84;56.89
63190;BME280;49286;44.460;26.114;2023-10-09T07:14:16;101588.78;;;10.86;55.81
63190;BME280;49286;44.460;26.114;2023-10-09T07:17:17;101625.91;;;11.07;56.12
63190;BME280;49286;44.460;26.114;2023-10-09T07:19:59;101656.53;;;13.84;64.55
63190;BME280;49286;44.460;26.114;2023-10-09T07:22:45;101660.19;;;12.23;54.59
63190;BME280;49286;44.460;26.114;2023-10-09T07:25:22;101665.41;;;12.20;55.40
63190;BME280;49286;44.460;26.114;2023-10-09T07:28:08;101569.28;;;11.84;53.96
63190;BME280;49286;44.460;26.114;2023-10-09T07:30:52;101585.38;;;11.43;54.77
63190;BME280;49286;44.460;26.114;2023-10-09T07:33:23;101675.66;;;11.45;54.60
63190;BME280;49286;44.460;26.114;2023-10-09T07:36:00;101585.25;;;11.37;57.06
63190;BME280;49286;44.460;26.114;2023-10-09T07:38:31;101557.44;;;12.14;56.49
63190;BME280;49286;44.460;26.114;2023-10-09T07:41:03;101674.66;;;13.40;59.41
63190;BME280;49286;44.460;26.114;2023-10-09T07:43:33;101569.69;;;14.36;63.54
63190;BME280;49286;44.460;26.114;2023-10-09T07:46:15;101679.81;;;14.56;51.19
63190;BME280;49286;44.460;26.114;2023-10-09T07:49:02;101577.72;;;11.60;54.33
63190;BME280;49286;44.460;26.114;2023-10-09T07:51:38;101562.88;;;11.62;54.67
63190;BME280;49286;44.460;26.114;2023-10-09T07:54:04;101475.22;;;10.99;56.45
63190;BME280;49286;44.460;26.114;2023-10-09T07:56:36;101646.63;;;12.62;57.86
63190;BME280;49286;44.460;26.114;2023-10-09T07:59:11;101563.25;;;12.66;55.60
63190;BME280;49286;44.460;26.114;2023-10-09T08:01:41;101648.13;;;14.57;56.77
63190;BME280;49286;44.460;26.114;2023-10-09T08:04:24;101635.03;;;15.63;60.56
63190;BME280;49286;44.460;26.114;2023-10-09T08:07:14;101652.19;;;13.89;53.31
63190;BME280;49286;44.460;26.114;2023-10-09T08:09:51;101618.00;;;14.15;56.60
63190;BME280;49286;44.460;26.114;2023-10-09T08:12:35;101535.31;;;12.79;52.91
63190;BME280;49286;44.460;26.114;2023-10-09T08:15:17;101528.91;;;12.54;52.81
63190;BME280;49286;44.460;26.114;2023-10-09T08:17:50;101625.31;;;13.26;52.95
63190;BME280;49286;44.460;26.114;2023-10-09T08:20:28;101589.06;;;13.01;52.22
63190;BME280;49286;44.460;26.114;2023-10-09T08:23:01;101613.88;;;15.01;58.02
63190;BME280;49286;44.460;26.114;2023-10-09T08:25:30;101582.44;;;12.51;51.89
63190;BME280;49286;44.460;26.114;2023-10-09T08:28:04;101514.03;;;13.75;55.95
63190;BME280;49286;44.460;26.114;2023-10-09T08:30:48;101536.25;;;15.61;49.83
63190;BME280;49286;44.460;26.114;2023-10-09T08:33:31;101546.19;;;13.22;50.26
63190;BME280;49286;44.460;26.114;2023-10-09T08:36:00;101635.94;;;13.34;50.63
63190;BME280;49286;44.460;26.114;2023-10-09T08:38:32;101513.44;;;12.89;50.04
63190;BME280;49286;44.460;26.114;2023-10-09T08:41:08;101605.28;;;13.48;50.39
63190;BME280;49286;44.460;26.114;2023-10-09T08:43:53;101599.59;;;14.31;55.86
63190;BME280;49286;44.460;26.114;2023-10-09T08:46:20;101617.63;;;13.49;50.78
63190;BME280;49286;44.460;26.114;2023-10-09T08:48:47;101568.28;;;13.30;49.95
63190;BME280;49286;44.460;26.114;2023-10-09T08:51:13;101477.25;;;14.17;57.34
63190;BME280;49286;44.460;26.114;2023-10-09T08:53:40;101514.84;;;13.62;51.46
63190;BME280;49286;44.460;26.114;2023-10-09T08:56:16;101600.25;;;13.85;51.87
63190;BME280;49286;44.460;26.114;2023-10-09T08:58:57;101609.84;;;13.74;49.82
63190;BME280;49286;44.460;26.114;2023-10-09T09:01:23;101502.72;;;14.05;50.05
63190;BME280;49286;44.460;26.114;2023-10-09T09:03:51;101611.25;;;14.91;47.63
63190;BME280;49286;44.460;26.114;2023-10-09T09:06:20;101593.16;;;13.72;49.84
63190;BME280;49286;44.460;26.114;2023-10-09T09:08:46;101564.53;;;15.12;48.53
63190;BME280;49286;44.460;26.114;2023-10-09T09:11:14;101597.91;;;16.05;50.10
63190;BME280;49286;44.460;26.114;2023-10-09T09:16:31;101482.53;;;14.36;47.20
63190;BME280;49286;44.460;26.114;2023-10-09T09:19:15;101509.88;;;15.18;51.08
63190;BME280;49286;44.460;26.114;2023-10-09T09:21:51;101574.22;;;14.68;50.06
63190;BME280;49286;44.460;26.114;2023-10-09T09:24:19;101483.41;;;15.41;53.41
63190;BME280;49286;44.460;26.114;2023-10-09T09:26:55;101480.75;;;16.99;52.73
63190;BME280;49286;44.460;26.114;2023-10-09T09:32:07;101579.34;;;14.28;47.35
63190;BME280;49286;44.460;26.114;2023-10-09T09:34:48;101568.06;;;15.14;51.13
63190;BME280;49286;44.460;26.114;2023-10-09T09:37:26;101484.38;;;15.04;47.68
63190;BME280;49286;44.460;26.114;2023-10-09T09:40:19;101456.84;;;13.68;48.79
63190;BME280;49286;44.460;26.114;2023-10-09T09:43:00;101487.72;;;13.93;46.77
63190;BME280;49286;44.460;26.114;2023-10-09T09:45:32;101570.47;;;14.05;47.82
63190;BME280;49286;44.460;26.114;2023-10-09T09:48:00;101560.88;;;14.34;47.33
63190;BME280;49286;44.460;26.114;2023-10-09T09:50:34;101517.81;;;14.57;47.04
63190;BME280;49286;44.460;26.114;2023-10-09T09:53:04;101524.72;;;14.03;47.70
63190;BME280;49286;44.460;26.114;2023-10-09T09:55:35;101531.00;;;14.52;47.05
63190;BME280;49286;44.460;26.114;2023-10-09T09:58:09;101445.56;;;14.27;47.68
63190;BME280;49286;44.460;26.114;2023-10-09T10:00:45;101520.47;;;14.68;48.06
63190;BME280;49286;44.460;26.114;2023-10-09T10:03:31;101530.03;;;14.12;46.36
63190;BME280;49286;44.460;26.114;2023-10-09T10:06:02;101512.53;;;15.23;47.84
63190;BME280;49286;44.460;26.114;2023-10-09T10:08:35;101449.97;;;14.14;47.23
63190;BME280;49286;44.460;26.114;2023-10-09T10:11:04;101504.59;;;14.55;46.60
63190;BME280;49286;44.460;26.114;2023-10-09T10:13:56;101497.34;;;13.81;47.81
63190;BME280;49286;44.460;26.114;2023-10-09T10:16:26;101398.00;;;13.92;47.68
63190;BME280;49286;44.460;26.114;2023-10-09T10:19:00;101485.25;;;14.92;46.80
63190;BME280;49286;44.460;26.114;2023-10-09T10:21:33;101480.56;;;15.98;46.88
63190;BME280;49286;44.460;26.114;2023-10-09T10:35:21;101372.50;;;14.51;44.18
63190;BME280;49286;44.460;26.114;2023-10-09T10:38:00;101441.16;;;15.25;45.36
63190;BME280;49286;44.460;26.114;2023-10-09T10:40:40;101369.88;;;14.37;44.71
63190;BME280;49286;44.460;26.114;2023-10-09T10:43:18;101392.78;;;14.78;44.51
63190;BME280;49286;44.460;26.114;2023-10-09T10:46:13;101335.50;;;14.89;43.94
63190;BME280;49286;44.460;26.114;2023-10-09T10:49:10;101308.19;;;14.84;44.19
63190;BME280;49286;44.460;26.114;2023-10-09T10:51:38;101400.41;;;15.66;43.08
63190;BME280;49286;44.460;26.114;2023-10-09T10:54:05;101303.44;;;15.58;43.11
63190;BME280;49286;44.460;26.114;2023-10-09T10:56:49;101346.56;;;15.80;43.36
63190;BME280;49286;44.460;26.114;2023-10-09T10:59:20;101313.03;;;15.81;43.24
63190;BME280;49286;44.460;26.114;2023-10-09T11:01:49;101257.56;;;15.64;42.50
63190;BME280;49286;44.460;26.114;2023-10-09T11:04:29;101323.31;;;16.19;42.42
63190;BME280;49286;44.460;26.114;2023-10-09T11:07:10;101332.91;;;16.34;42.75
63190;BME280;49286;44.460;26.114;2023-10-09T11:09:52;101298.56;;;16.25;42.37
63190;BME280;49286;44.460;26.114;2023-10-09T11:12:50;101266.28;;;15.81;42.83
63190;BME280;49286;44.460;26.114;2023-10-09T11:15:34;101222.69;;;15.01;42.69
63190;BME280;49286;44.460;26.114;2023-10-09T11:18:21;101231.34;;;15.27;43.08
63190;BME280;49286;44.460;26.114;2023-10-09T11:20:55;101321.84;;;15.80;43.56
63190;BME280;49286;44.460;26.114;2023-10-09T11:23:33;101289.63;;;15.07;43.43
63190;BME280;49286;44.460;26.114;2023-10-09T11:25:59;101212.84;;;15.26;43.71
63190;BME280;49286;44.460;26.114;2023-10-09T11:28:43;101298.72;;;16.05;43.00
63190;BME280;49286;44.460;26.114;2023-10-09T11:31:15;101303.06;;;16.14;43.00
63190;BME280;49286;44.460;26.114;2023-10-09T11:33:43;101301.25;;;16.17;43.46
63190;BME280;49286;44.460;26.114;2023-10-09T11:36:09;101206.13;;;16.00;42.73
63190;BME280;49286;44.460;26.114;2023-10-09T11:38:36;101254.00;;;15.68;42.86
63190;BME280;49286;44.460;26.114;2023-10-09T11:41:14;101258.16;;;16.03;42.88
63190;BME280;49286;44.460;26.114;2023-10-09T11:43:51;101268.28;;;15.46;43.70
63190;BME280;49286;44.460;26.114;2023-10-09T11:46:17;101171.09;;;15.66;43.67
63190;BME280;49286;44.460;26.114;2023-10-09T11:49:18;101260.53;;;16.32;43.36
63190;BME280;49286;44.460;26.114;2023-10-09T11:51:47;101257.75;;;16.46;43.00
63190;BME280;49286;44.460;26.114;2023-10-09T11:54:50;101251.16;;;15.96;43.69
63190;BME280;49286;44.460;26.114;2023-10-09T11:57:16;101136.16;;;15.27;43.39
63190;BME280;49286;44.460;26.114;2023-10-09T11:59:42;101249.91;;;16.34;43.35
63190;BME280;49286;44.460;26.114;2023-10-09T12:02:09;101218.16;;;16.31;43.17
63190;BME280;49286;44.460;26.114;2023-10-09T12:04:39;101243.44;;;16.59;42.81
63190;BME280;49286;44.460;26.114;2023-10-09T12:07:10;101246.47;;;16.24;43.58
63190;BME280;49286;44.460;26.114;2023-10-09T12:09:36;101218.09;;;16.37;43.53
63190;BME280;49286;44.460;26.114;2023-10-09T12:12:05;101115.19;;;16.04;44.36
63190;BME280;49286;44.460;26.114;2023-10-09T12:14:31;101213.19;;;16.01;43.50
63190;BME280;49286;44.460;26.114;2023-10-09T12:17:04;101158.41;;;16.03;43.82
63190;BME280;49286;44.460;26.114;2023-10-09T12:21:58;101183.97;;;16.08;43.85
63190;BME280;49286;44.460;26.114;2023-10-09T12:24:26;101180.06;;;16.41;44.18
63190;BME280;49286;44.460;26.114;2023-10-09T12:26:52;101112.97;;;16.40;44.40
63190;BME280;49286;44.460;26.114;2023-10-09T12:29:19;101117.16;;;15.82;43.83
63190;BME280;49286;44.460;26.114;2023-10-09T12:31:46;101174.78;;;16.42;43.45
63190;BME280;49286;44.460;26.114;2023-10-09T12:34:12;101133.41;;;16.29;43.73
63190;BME280;49286;44.460;26.114;2023-10-09T12:36:45;101174.72;;;16.47;43.54
63190;BME280;49286;44.460;26.114;2023-10-09T12:39:10;101063.50;;;15.71;43.53
63190;BME280;49286;44.460;26.114;2023-10-09T12:41:46;101104.50;;;16.14;43.89
63190;BME280;49286;44.460;26.114;2023-10-09T12:44:11;101041.34;;;15.81;43.96
63190;BME280;49286;44.460;26.114;2023-10-09T12:46:43;101109.34;;;16.51;44.25
63190;BME280;49286;44.460;26.114;2023-10-09T12:49:20;101180.72;;;16.61;43.73
63190;BME280;49286;44.460;26.114;2023-10-09T12:51:52;101102.09;;;15.92;43.50
63190;BME280;49286;44.460;26.114;2023-10-09T12:54:18;101029.13;;;15.67;43.90
63190;BME280;49286;44.460;26.114;2023-10-09T12:56:52;101094.50;;;16.36;44.17
63190;BME280;49286;44.460;26.114;2023-10-09T12:59:17;101168.06;;;16.88;43.62
63190;BME280;49286;44.460;26.114;2023-10-09T13:01:45;101160.50;;;16.56;43.80
63190;BME280;49286;44.460;26.114;2023-10-09T13:04:15;101161.13;;;16.73;44.04
63190;BME280;49286;44.460;26.114;2023-10-09T13:06:41;101148.97;;;16.58;44.11
63190;BME280;49286;44.460;26.114;2023-10-09T13:09:16;101136.34;;;16.77;44.25
63190;BME280;49286;44.460;26.114;2023-10-09T13:11:49;101119.59;;;16.74;44.27
63190;BME280;49286;44.460;26.114;2023-10-09T13:14:16;101020.69;;;16.11;43.82
63190;BME280;49286;44.460;26.114;2023-10-09T13:16:48;101126.44;;;16.92;43.65
63190;BME280;49286;44.460;26.114;2023-10-09T13:19:16;101031.09;;;16.23;43.23
63190;BME280;49286;44.460;26.114;2023-10-09T13:21:43;101094.00;;;16.73;43.06
63190;BME280;49286;44.460;26.114;2023-10-09T13:24:09;101087.16;;;16.58;43.07
63190;BME280;49286;44.460;26.114;2023-10-09T13:26:45;101100.53;;;16.49;43.84
63190;BME280;49286;44.460;26.114;2023-10-09T13:29:12;101094.31;;;16.48;43.84
63190;BME280;49286;44.460;26.114;2023-10-09T13:31:38;101051.19;;;16.41;43.60
63190;BME280;49286;44.460;26.114;2023-10-09T13:34:11;101066.66;;;16.71;43.47
63190;BME280;49286;44.460;26.114;2023-10-09T13:36:42;101024.50;;;16.55;43.36
63190;BME280;49286;44.460;26.114;2023-10-09T13:39:19;101041.66;;;16.27;43.21
63190;BME280;49286;44.460;26.114;2023-10-09T13:41:54;100993.03;;;16.32;43.30
63190;BME280;49286;44.460;26.114;2023-10-09T13:44:29;100981.59;;;16.29;42.70
63190;BME280;49286;44.460;26.114;2023-10-09T13:47:02;101023.50;;;16.62;43.10